sensor_id;sensor_type;location;lat;lon;timestamp;temperature;humidity
48876;DHT22;34689;51.644;5.618;2022-07-06T00:01:43;16.10;81.10
48876;DHT22;34689;51.644;5.618;2022-07-06T00:04:09;16.10;81.20
48876;DHT22;34689;51.644;5.618;2022-07-06T00:06:37;16.10;81.30
48876;DHT22;34689;51.644;5.618;2022-07-06T00:09:04;16.10;81.30
48876;DHT22;34689;51.644;5.618;2022-07-06T00:11:30;16.10;81.40
48876;DHT22;34689;51.644;5.618;2022-07-06T00:13:55;16.00;81.50
48876;DHT22;34689;51.644;5.618;2022-07-06T00:16:25;16.10;81.60
48876;DHT22;34689;51.644;5.618;2022-07-06T00:18:51;16.00;81.70
48876;DHT22;34689;51.644;5.618;2022-07-06T00:21:19;16.00;81.80
48876;DHT22;34689;51.644;5.618;2022-07-06T00:23:44;16.00;81.90
48876;DHT22;34689;51.644;5.618;2022-07-06T00:26:10;16.00;82.60
48876;DHT22;34689;51.644;5.618;2022-07-06T00:28:38;16.00;82.00
48876;DHT22;34689;51.644;5.618;2022-07-06T00:31:04;16.00;82.10
48876;DHT22;34689;51.644;5.618;2022-07-06T00:33:31;16.00;82.10
48876;DHT22;34689;51.644;5.618;2022-07-06T00:35:57;15.90;82.30
48876;DHT22;34689;51.644;5.618;2022-07-06T00:38:22;15.90;82.50
48876;DHT22;34689;51.644;5.618;2022-07-06T00:40:51;15.80;83.20
48876;DHT22;34689;51.644;5.618;2022-07-06T00:43:17;15.80;82.70
48876;DHT22;34689;51.644;5.618;2022-07-06T00:45:42;15.80;82.80
48876;DHT22;34689;51.644;5.618;2022-07-06T00:48:09;15.80;82.80
48876;DHT22;34689;51.644;5.618;2022-07-06T00:50:35;15.80;82.90
48876;DHT22;34689;51.644;5.618;2022-07-06T00:53:03;15.80;83.10
48876;DHT22;34689;51.644;5.618;2022-07-06T00:55:31;15.80;83.20
48876;DHT22;34689;51.644;5.618;2022-07-06T00:57:58;15.80;83.30
48876;DHT22;34689;51.644;5.618;2022-07-06T01:00:27;15.80;83.40
48876;DHT22;34689;51.644;5.618;2022-07-06T01:02:53;15.70;83.40
48876;DHT22;34689;51.644;5.618;2022-07-06T01:05:20;15.70;83.60
48876;DHT22;34689;51.644;5.618;2022-07-06T01:07:48;15.70;83.70
48876;DHT22;34689;51.644;5.618;2022-07-06T01:10:15;15.70;83.90
48876;DHT22;34689;51.644;5.618;2022-07-06T01:12:42;15.60;84.00
48876;DHT22;34689;51.644;5.618;2022-07-06T01:15:29;15.60;84.20
48876;DHT22;34689;51.644;5.618;2022-07-06T01:17:54;15.60;84.20
48876;DHT22;34689;51.644;5.618;2022-07-06T01:20:24;15.50;84.30
48876;DHT22;34689;51.644;5.618;2022-07-06T01:22:52;15.50;84.50
48876;DHT22;34689;51.644;5.618;2022-07-06T01:25:19;15.40;84.60
48876;DHT22;34689;51.644;5.618;2022-07-06T01:27:46;15.40;84.80
48876;DHT22;34689;51.644;5.618;2022-07-06T01:30:14;15.40;84.90
48876;DHT22;34689;51.644;5.618;2022-07-06T01:32:40;15.30;85.00
48876;DHT22;34689;51.644;5.618;2022-07-06T01:35:07;15.30;85.10
48876;DHT22;34689;51.644;5.618;2022-07-06T01:37:35;15.30;85.40
48876;DHT22;34689;51.644;5.618;2022-07-06T01:40:03;15.30;86.00
48876;DHT22;34689;51.644;5.618;2022-07-06T01:42:30;15.30;85.40
48876;DHT22;34689;51.644;5.618;2022-07-06T01:44:58;15.30;85.40
48876;DHT22;34689;51.644;5.618;2022-07-06T01:47:23;15.30;85.40
48876;DHT22;34689;51.644;5.618;2022-07-06T01:49:49;15.30;85.50
48876;DHT22;34689;51.644;5.618;2022-07-06T01:52:15;15.30;85.50
48876;DHT22;34689;51.644;5.618;2022-07-06T01:54:41;15.30;85.50
48876;DHT22;34689;51.644;5.618;2022-07-06T01:57:07;15.30;85.70
48876;DHT22;34689;51.644;5.618;2022-07-06T01:59:33;15.30;85.80
48876;DHT22;34689;51.644;5.618;2022-07-06T02:01:58;15.30;85.80
48876;DHT22;34689;51.644;5.618;2022-07-06T02:04:24;15.20;85.80
48876;DHT22;34689;51.644;5.618;2022-07-06T02:06:52;15.20;85.90
48876;DHT22;34689;51.644;5.618;2022-07-06T02:09:20;15.10;86.00
48876;DHT22;34689;51.644;5.618;2022-07-06T02:11:48;15.10;86.20
48876;DHT22;34689;51.644;5.618;2022-07-06T02:14:14;15.10;86.30
48876;DHT22;34689;51.644;5.618;2022-07-06T02:16:42;15.00;86.40
48876;DHT22;34689;51.644;5.618;2022-07-06T02:19:07;15.00;86.40
48876;DHT22;34689;51.644;5.618;2022-07-06T02:21:33;15.00;86.60
48876;DHT22;34689;51.644;5.618;2022-07-06T02:23:59;15.00;86.70
48876;DHT22;34689;51.644;5.618;2022-07-06T02:26:24;14.90;86.60
48876;DHT22;34689;51.644;5.618;2022-07-06T02:28:50;14.90;86.70
48876;DHT22;34689;51.644;5.618;2022-07-06T02:31:18;14.90;86.80
48876;DHT22;34689;51.644;5.618;2022-07-06T02:33:44;14.90;86.80
48876;DHT22;34689;51.644;5.618;2022-07-06T02:36:10;14.90;86.80
48876;DHT22;34689;51.644;5.618;2022-07-06T02:38:35;14.90;86.80
48876;DHT22;34689;51.644;5.618;2022-07-06T02:41:01;14.80;86.90
48876;DHT22;34689;51.644;5.618;2022-07-06T02:43:27;14.80;87.00
48876;DHT22;34689;51.644;5.618;2022-07-06T02:45:52;14.80;87.20
48876;DHT22;34689;51.644;5.618;2022-07-06T02:48:18;14.80;87.20
48876;DHT22;34689;51.644;5.618;2022-07-06T02:50:46;14.80;87.20
48876;DHT22;34689;51.644;5.618;2022-07-06T02:53:12;14.80;87.30
48876;DHT22;34689;51.644;5.618;2022-07-06T02:55:38;14.70;87.40
48876;DHT22;34689;51.644;5.618;2022-07-06T02:58:03;14.60;87.60
48876;DHT22;34689;51.644;5.618;2022-07-06T03:00:29;14.60;87.60
48876;DHT22;34689;51.644;5.618;2022-07-06T03:02:55;14.70;87.60
48876;DHT22;34689;51.644;5.618;2022-07-06T03:05:21;14.60;87.80
48876;DHT22;34689;51.644;5.618;2022-07-06T03:07:49;14.60;87.80
48876;DHT22;34689;51.644;5.618;2022-07-06T03:10:14;14.50;87.70
48876;DHT22;34689;51.644;5.618;2022-07-06T03:12:42;14.50;88.00
48876;DHT22;34689;51.644;5.618;2022-07-06T03:15:09;14.50;88.10
48876;DHT22;34689;51.644;5.618;2022-07-06T03:17:36;14.50;88.20
48876;DHT22;34689;51.644;5.618;2022-07-06T03:20:04;14.50;88.20
48876;DHT22;34689;51.644;5.618;2022-07-06T03:22:32;14.50;88.20
48876;DHT22;34689;51.644;5.618;2022-07-06T03:25:00;14.50;88.20
48876;DHT22;34689;51.644;5.618;2022-07-06T03:27:26;14.60;88.20
48876;DHT22;34689;51.644;5.618;2022-07-06T03:29:51;14.60;88.10
48876;DHT22;34689;51.644;5.618;2022-07-06T03:32:17;14.60;88.20
48876;DHT22;34689;51.644;5.618;2022-07-06T03:34:45;14.70;88.30
48876;DHT22;34689;51.644;5.618;2022-07-06T03:37:10;14.70;88.40
48876;DHT22;34689;51.644;5.618;2022-07-06T03:39:36;14.60;88.40
48876;DHT22;34689;51.644;5.618;2022-07-06T03:42:02;14.70;88.50
48876;DHT22;34689;51.644;5.618;2022-07-06T03:44:28;14.70;88.50
48876;DHT22;34689;51.644;5.618;2022-07-06T03:46:53;14.70;88.50
48876;DHT22;34689;51.644;5.618;2022-07-06T03:49:21;14.70;88.60
48876;DHT22;34689;51.644;5.618;2022-07-06T03:51:47;14.70;88.70
48876;DHT22;34689;51.644;5.618;2022-07-06T03:54:12;14.60;88.80
48876;DHT22;34689;51.644;5.618;2022-07-06T03:56:38;14.60;89.00
48876;DHT22;34689;51.644;5.618;2022-07-06T03:59:04;14.60;89.10
48876;DHT22;34689;51.644;5.618;2022-07-06T04:01:30;14.60;89.00
48876;DHT22;34689;51.644;5.618;2022-07-06T04:03:56;14.60;89.20
48876;DHT22;34689;51.644;5.618;2022-07-06T04:06:22;14.50;89.20
48876;DHT22;34689;51.644;5.618;2022-07-06T04:08:48;14.50;89.50
48876;DHT22;34689;51.644;5.618;2022-07-06T04:11:14;14.50;89.70
48876;DHT22;34689;51.644;5.618;2022-07-06T04:13:42;14.50;89.80
48876;DHT22;34689;51.644;5.618;2022-07-06T04:16:07;14.50;89.70
48876;DHT22;34689;51.644;5.618;2022-07-06T04:18:33;14.50;89.70
48876;DHT22;34689;51.644;5.618;2022-07-06T04:20:59;14.50;89.70
48876;DHT22;34689;51.644;5.618;2022-07-06T04:23:25;14.60;89.90
48876;DHT22;34689;51.644;5.618;2022-07-06T04:25:51;14.50;89.80
48876;DHT22;34689;51.644;5.618;2022-07-06T04:28:16;14.50;89.90
48876;DHT22;34689;51.644;5.618;2022-07-06T04:30:42;14.50;90.00
48876;DHT22;34689;51.644;5.618;2022-07-06T04:33:08;14.60;90.10
48876;DHT22;34689;51.644;5.618;2022-07-06T04:35:34;14.50;90.00
48876;DHT22;34689;51.644;5.618;2022-07-06T04:38:00;14.50;90.10
48876;DHT22;34689;51.644;5.618;2022-07-06T04:40:26;14.50;90.10
48876;DHT22;34689;51.644;5.618;2022-07-06T04:42:52;14.50;90.20
48876;DHT22;34689;51.644;5.618;2022-07-06T04:45:17;14.60;90.20
48876;DHT22;34689;51.644;5.618;2022-07-06T04:47:43;14.60;90.20
48876;DHT22;34689;51.644;5.618;2022-07-06T04:50:09;14.60;90.30
48876;DHT22;34689;51.644;5.618;2022-07-06T04:52:35;14.60;90.20
48876;DHT22;34689;51.644;5.618;2022-07-06T04:55:01;14.70;90.30
48876;DHT22;34689;51.644;5.618;2022-07-06T04:57:26;14.60;90.30
48876;DHT22;34689;51.644;5.618;2022-07-06T04:59:57;14.60;90.40
48876;DHT22;34689;51.644;5.618;2022-07-06T05:02:23;14.70;90.40
48876;DHT22;34689;51.644;5.618;2022-07-06T05:04:49;14.70;90.40
48876;DHT22;34689;51.644;5.618;2022-07-06T05:07:15;14.70;90.50
48876;DHT22;34689;51.644;5.618;2022-07-06T05:09:42;14.70;90.50
48876;DHT22;34689;51.644;5.618;2022-07-06T05:12:09;14.70;90.50
48876;DHT22;34689;51.644;5.618;2022-07-06T05:14:35;14.70;90.60
48876;DHT22;34689;51.644;5.618;2022-07-06T05:17:01;14.70;90.60
48876;DHT22;34689;51.644;5.618;2022-07-06T05:19:27;14.70;90.70
48876;DHT22;34689;51.644;5.618;2022-07-06T05:21:53;14.70;90.80
48876;DHT22;34689;51.644;5.618;2022-07-06T05:24:21;14.70;90.80
48876;DHT22;34689;51.644;5.618;2022-07-06T05:26:46;14.70;90.80
48876;DHT22;34689;51.644;5.618;2022-07-06T05:29:12;14.80;90.90
48876;DHT22;34689;51.644;5.618;2022-07-06T05:31:38;14.90;90.80
48876;DHT22;34689;51.644;5.618;2022-07-06T05:34:03;14.90;90.90
48876;DHT22;34689;51.644;5.618;2022-07-06T05:36:29;14.90;90.80
48876;DHT22;34689;51.644;5.618;2022-07-06T05:38:55;14.90;90.80
48876;DHT22;34689;51.644;5.618;2022-07-06T05:41:23;15.00;90.80
48876;DHT22;34689;51.644;5.618;2022-07-06T05:43:48;15.00;90.90
48876;DHT22;34689;51.644;5.618;2022-07-06T05:46:16;15.00;90.90
48876;DHT22;34689;51.644;5.618;2022-07-06T05:48:42;15.00;90.90
48876;DHT22;34689;51.644;5.618;2022-07-06T05:51:26;15.00;91.00
48876;DHT22;34689;51.644;5.618;2022-07-06T05:53:54;15.00;91.00
48876;DHT22;34689;51.644;5.618;2022-07-06T05:56:22;15.00;91.10
48876;DHT22;34689;51.644;5.618;2022-07-06T05:58:48;15.00;91.10
48876;DHT22;34689;51.644;5.618;2022-07-06T06:01:13;15.10;91.10
48876;DHT22;34689;51.644;5.618;2022-07-06T06:03:39;15.10;91.10
48876;DHT22;34689;51.644;5.618;2022-07-06T06:06:05;15.20;91.10
48876;DHT22;34689;51.644;5.618;2022-07-06T06:08:31;15.20;91.10
48876;DHT22;34689;51.644;5.618;2022-07-06T06:10:56;15.20;91.10
48876;DHT22;34689;51.644;5.618;2022-07-06T06:13:22;15.20;91.10
48876;DHT22;34689;51.644;5.618;2022-07-06T06:15:48;15.30;91.20
48876;DHT22;34689;51.644;5.618;2022-07-06T06:18:14;15.40;91.20
48876;DHT22;34689;51.644;5.618;2022-07-06T06:20:42;15.50;91.10
48876;DHT22;34689;51.644;5.618;2022-07-06T06:23:08;15.50;91.10
48876;DHT22;34689;51.644;5.618;2022-07-06T06:25:38;15.50;91.20
48876;DHT22;34689;51.644;5.618;2022-07-06T06:28:06;15.60;91.20
48876;DHT22;34689;51.644;5.618;2022-07-06T06:30:32;15.70;91.20
48876;DHT22;34689;51.644;5.618;2022-07-06T06:33:09;15.80;91.20
48876;DHT22;34689;51.644;5.618;2022-07-06T06:35:37;15.90;91.10
48876;DHT22;34689;51.644;5.618;2022-07-06T06:38:03;16.00;90.90
48876;DHT22;34689;51.644;5.618;2022-07-06T06:40:29;16.10;90.80
48876;DHT22;34689;51.644;5.618;2022-07-06T06:42:54;16.20;90.70
48876;DHT22;34689;51.644;5.618;2022-07-06T06:45:20;16.30;90.70
48876;DHT22;34689;51.644;5.618;2022-07-06T06:47:46;16.30;90.60
48876;DHT22;34689;51.644;5.618;2022-07-06T06:50:11;16.30;90.60
48876;DHT22;34689;51.644;5.618;2022-07-06T06:52:37;16.40;90.60
48876;DHT22;34689;51.644;5.618;2022-07-06T06:55:03;16.30;90.60
48876;DHT22;34689;51.644;5.618;2022-07-06T06:57:29;16.40;90.60
48876;DHT22;34689;51.644;5.618;2022-07-06T06:59:55;16.50;90.50
48876;DHT22;34689;51.644;5.618;2022-07-06T07:02:20;16.60;90.50
48876;DHT22;34689;51.644;5.618;2022-07-06T07:04:46;16.60;90.40
48876;DHT22;34689;51.644;5.618;2022-07-06T07:07:12;16.70;90.40
48876;DHT22;34689;51.644;5.618;2022-07-06T07:09:37;16.80;90.30
48876;DHT22;34689;51.644;5.618;2022-07-06T07:12:04;16.90;90.20
48876;DHT22;34689;51.644;5.618;2022-07-06T07:14:30;16.90;90.20
48876;DHT22;34689;51.644;5.618;2022-07-06T07:16:56;17.00;90.20
48876;DHT22;34689;51.644;5.618;2022-07-06T07:19:21;17.10;90.10
48876;DHT22;34689;51.644;5.618;2022-07-06T07:21:47;17.10;89.90
48876;DHT22;34689;51.644;5.618;2022-07-06T07:24:13;17.20;89.80
48876;DHT22;34689;51.644;5.618;2022-07-06T07:26:38;17.20;89.50
48876;DHT22;34689;51.644;5.618;2022-07-06T07:29:04;17.30;89.30
48876;DHT22;34689;51.644;5.618;2022-07-06T07:31:30;17.30;89.00
48876;DHT22;34689;51.644;5.618;2022-07-06T07:33:55;17.30;89.00
48876;DHT22;34689;51.644;5.618;2022-07-06T07:36:23;17.30;88.90
48876;DHT22;34689;51.644;5.618;2022-07-06T07:38:49;17.20;89.00
48876;DHT22;34689;51.644;5.618;2022-07-06T07:41:15;17.30;89.20
48876;DHT22;34689;51.644;5.618;2022-07-06T07:43:42;17.30;89.10
48876;DHT22;34689;51.644;5.618;2022-07-06T07:46:08;17.30;89.00
48876;DHT22;34689;51.644;5.618;2022-07-06T07:48:37;17.30;88.60
48876;DHT22;34689;51.644;5.618;2022-07-06T07:51:02;17.30;88.50
48876;DHT22;34689;51.644;5.618;2022-07-06T07:53:30;17.40;88.40
48876;DHT22;34689;51.644;5.618;2022-07-06T07:55:56;17.40;88.40
48876;DHT22;34689;51.644;5.618;2022-07-06T07:58:22;17.50;88.20
48876;DHT22;34689;51.644;5.618;2022-07-06T08:00:47;17.50;88.10
48876;DHT22;34689;51.644;5.618;2022-07-06T08:03:13;17.50;88.00
48876;DHT22;34689;51.644;5.618;2022-07-06T08:05:39;17.50;88.00
48876;DHT22;34689;51.644;5.618;2022-07-06T08:08:04;17.60;87.70
48876;DHT22;34689;51.644;5.618;2022-07-06T08:10:30;17.60;87.60
48876;DHT22;34689;51.644;5.618;2022-07-06T08:12:59;17.70;87.30
48876;DHT22;34689;51.644;5.618;2022-07-06T08:15:28;17.70;87.10
48876;DHT22;34689;51.644;5.618;2022-07-06T08:17:53;17.70;86.90
48876;DHT22;34689;51.644;5.618;2022-07-06T08:20:22;17.80;86.70
48876;DHT22;34689;51.644;5.618;2022-07-06T08:22:47;17.80;86.50
48876;DHT22;34689;51.644;5.618;2022-07-06T08:25:13;17.80;86.30
48876;DHT22;34689;51.644;5.618;2022-07-06T08:27:39;17.90;86.30
48876;DHT22;34689;51.644;5.618;2022-07-06T08:30:06;17.90;86.20
48876;DHT22;34689;51.644;5.618;2022-07-06T08:32:32;17.90;86.10
48876;DHT22;34689;51.644;5.618;2022-07-06T08:35:00;18.00;86.00
48876;DHT22;34689;51.644;5.618;2022-07-06T08:37:26;18.00;85.90
48876;DHT22;34689;51.644;5.618;2022-07-06T08:39:51;18.10;85.50
48876;DHT22;34689;51.644;5.618;2022-07-06T08:42:17;18.10;84.90
48876;DHT22;34689;51.644;5.618;2022-07-06T08:44:43;18.20;84.70
48876;DHT22;34689;51.644;5.618;2022-07-06T08:47:09;18.20;84.40
48876;DHT22;34689;51.644;5.618;2022-07-06T08:49:36;18.20;84.20
48876;DHT22;34689;51.644;5.618;2022-07-06T08:52:06;18.30;84.40
48876;DHT22;34689;51.644;5.618;2022-07-06T08:54:34;18.40;84.00
48876;DHT22;34689;51.644;5.618;2022-07-06T08:57:02;18.40;83.60
48876;DHT22;34689;51.644;5.618;2022-07-06T08:59:29;18.40;83.00
48876;DHT22;34689;51.644;5.618;2022-07-06T09:01:58;18.30;83.30
48876;DHT22;34689;51.644;5.618;2022-07-06T09:04:25;18.40;83.50
48876;DHT22;34689;51.644;5.618;2022-07-06T09:06:55;18.40;82.90
48876;DHT22;34689;51.644;5.618;2022-07-06T09:09:24;18.50;83.00
48876;DHT22;34689;51.644;5.618;2022-07-06T09:11:52;18.60;82.60
48876;DHT22;34689;51.644;5.618;2022-07-06T09:14:19;18.60;82.20
48876;DHT22;34689;51.644;5.618;2022-07-06T09:16:51;18.70;81.80
48876;DHT22;34689;51.644;5.618;2022-07-06T09:19:16;18.80;81.10
48876;DHT22;34689;51.644;5.618;2022-07-06T09:21:42;18.90;80.70
48876;DHT22;34689;51.644;5.618;2022-07-06T09:24:10;19.00;80.20
48876;DHT22;34689;51.644;5.618;2022-07-06T09:26:37;19.00;80.00
48876;DHT22;34689;51.644;5.618;2022-07-06T09:29:04;19.10;79.80
48876;DHT22;34689;51.644;5.618;2022-07-06T09:31:29;19.20;79.80
48876;DHT22;34689;51.644;5.618;2022-07-06T09:33:59;19.30;79.50
48876;DHT22;34689;51.644;5.618;2022-07-06T09:39:23;19.30;77.90
48876;DHT22;34689;51.644;5.618;2022-07-06T09:41:55;19.20;77.20
48876;DHT22;34689;51.644;5.618;2022-07-06T09:44:32;19.30;77.80
48876;DHT22;34689;51.644;5.618;2022-07-06T09:47:01;19.30;77.10
48876;DHT22;34689;51.644;5.618;2022-07-06T09:49:27;19.40;76.90
48876;DHT22;34689;51.644;5.618;2022-07-06T09:51:57;19.50;76.10
48876;DHT22;34689;51.644;5.618;2022-07-06T09:54:23;19.50;75.30
48876;DHT22;34689;51.644;5.618;2022-07-06T09:56:50;19.70;75.00
48876;DHT22;34689;51.644;5.618;2022-07-06T09:59:18;19.80;74.90
48876;DHT22;34689;51.644;5.618;2022-07-06T10:01:45;19.80;74.50
48876;DHT22;34689;51.644;5.618;2022-07-06T10:04:12;19.80;74.30
48876;DHT22;34689;51.644;5.618;2022-07-06T10:06:41;19.90;74.50
48876;DHT22;34689;51.644;5.618;2022-07-06T10:09:11;20.00;74.40
48876;DHT22;34689;51.644;5.618;2022-07-06T10:12:03;20.00;74.40
48876;DHT22;34689;51.644;5.618;2022-07-06T10:14:32;20.00;73.60
48876;DHT22;34689;51.644;5.618;2022-07-06T10:17:00;20.00;73.80
48876;DHT22;34689;51.644;5.618;2022-07-06T10:19:27;20.00;73.60
48876;DHT22;34689;51.644;5.618;2022-07-06T10:21:56;20.10;73.20
48876;DHT22;34689;51.644;5.618;2022-07-06T10:24:22;20.20;73.10
48876;DHT22;34689;51.644;5.618;2022-07-06T10:26:48;20.30;72.90
48876;DHT22;34689;51.644;5.618;2022-07-06T10:29:14;20.30;73.30
48876;DHT22;34689;51.644;5.618;2022-07-06T10:31:43;20.30;72.90
48876;DHT22;34689;51.644;5.618;2022-07-06T10:34:12;20.50;72.40
48876;DHT22;34689;51.644;5.618;2022-07-06T10:36:40;20.60;71.90
48876;DHT22;34689;51.644;5.618;2022-07-06T10:39:06;20.60;71.70
48876;DHT22;34689;51.644;5.618;2022-07-06T10:41:54;20.60;71.90
48876;DHT22;34689;51.644;5.618;2022-07-06T10:44:23;20.60;71.40
48876;DHT22;34689;51.644;5.618;2022-07-06T10:46:57;20.50;72.00
48876;DHT22;34689;51.644;5.618;2022-07-06T10:49:24;20.50;71.90
48876;DHT22;34689;51.644;5.618;2022-07-06T10:51:50;20.50;72.00
48876;DHT22;34689;51.644;5.618;2022-07-06T10:54:18;20.50;71.50
48876;DHT22;34689;51.644;5.618;2022-07-06T10:56:45;20.50;71.40
48876;DHT22;34689;51.644;5.618;2022-07-06T10:59:16;20.50;71.10
48876;DHT22;34689;51.644;5.618;2022-07-06T11:02:12;20.40;71.20
48876;DHT22;34689;51.644;5.618;2022-07-06T11:04:39;20.50;70.40
48876;DHT22;34689;51.644;5.618;2022-07-06T11:07:15;20.60;71.40
48876;DHT22;34689;51.644;5.618;2022-07-06T11:09:42;20.70;70.40
48876;DHT22;34689;51.644;5.618;2022-07-06T11:12:22;20.80;70.10
48876;DHT22;34689;51.644;5.618;2022-07-06T11:14:52;20.90;69.80
48876;DHT22;34689;51.644;5.618;2022-07-06T11:17:18;20.90;69.90
48876;DHT22;34689;51.644;5.618;2022-07-06T11:19:58;21.00;69.50
48876;DHT22;34689;51.644;5.618;2022-07-06T11:22:36;21.00;68.80
48876;DHT22;34689;51.644;5.618;2022-07-06T11:25:03;21.00;69.00
48876;DHT22;34689;51.644;5.618;2022-07-06T11:27:29;21.00;69.00
48876;DHT22;34689;51.644;5.618;2022-07-06T11:29:55;21.00;69.50
48876;DHT22;34689;51.644;5.618;2022-07-06T11:32:26;20.90;69.20
48876;DHT22;34689;51.644;5.618;2022-07-06T11:34:57;20.90;69.50
48876;DHT22;34689;51.644;5.618;2022-07-06T11:37:23;21.00;69.40
48876;DHT22;34689;51.644;5.618;2022-07-06T11:39:49;21.00;68.90
48876;DHT22;34689;51.644;5.618;2022-07-06T11:42:16;21.00;68.70
48876;DHT22;34689;51.644;5.618;2022-07-06T11:44:43;21.10;68.60
48876;DHT22;34689;51.644;5.618;2022-07-06T11:47:11;21.10;68.40
48876;DHT22;34689;51.644;5.618;2022-07-06T11:49:39;21.20;68.20
48876;DHT22;34689;51.644;5.618;2022-07-06T11:52:07;21.30;67.50
48876;DHT22;34689;51.644;5.618;2022-07-06T11:54:35;21.40;67.30
48876;DHT22;34689;51.644;5.618;2022-07-06T11:57:01;21.40;67.60
48876;DHT22;34689;51.644;5.618;2022-07-06T11:59:36;21.40;67.00
48876;DHT22;34689;51.644;5.618;2022-07-06T12:02:05;21.50;67.00
48876;DHT22;34689;51.644;5.618;2022-07-06T12:04:33;21.70;66.50
48876;DHT22;34689;51.644;5.618;2022-07-06T12:07:04;21.80;66.60
48876;DHT22;34689;51.644;5.618;2022-07-06T12:09:33;21.70;66.30
48876;DHT22;34689;51.644;5.618;2022-07-06T12:12:00;21.80;67.10
48876;DHT22;34689;51.644;5.618;2022-07-06T12:14:29;21.90;66.90
48876;DHT22;34689;51.644;5.618;2022-07-06T12:16:55;21.90;66.90
48876;DHT22;34689;51.644;5.618;2022-07-06T12:19:24;21.80;66.90
48876;DHT22;34689;51.644;5.618;2022-07-06T12:21:51;21.90;66.80
48876;DHT22;34689;51.644;5.618;2022-07-06T12:24:22;22.00;66.60
48876;DHT22;34689;51.644;5.618;2022-07-06T12:26:48;21.90;66.00
48876;DHT22;34689;51.644;5.618;2022-07-06T12:29:14;22.00;66.00
48876;DHT22;34689;51.644;5.618;2022-07-06T12:31:49;22.00;65.70
48876;DHT22;34689;51.644;5.618;2022-07-06T12:34:17;22.00;65.90
48876;DHT22;34689;51.644;5.618;2022-07-06T12:37:09;22.00;65.80
48876;DHT22;34689;51.644;5.618;2022-07-06T12:39:47;22.00;65.70
48876;DHT22;34689;51.644;5.618;2022-07-06T12:42:16;22.00;65.90
48876;DHT22;34689;51.644;5.618;2022-07-06T12:44:48;22.10;65.80
48876;DHT22;34689;51.644;5.618;2022-07-06T12:47:17;22.10;64.90
48876;DHT22;34689;51.644;5.618;2022-07-06T12:49:43;22.20;65.20
48876;DHT22;34689;51.644;5.618;2022-07-06T12:52:14;22.20;65.00
48876;DHT22;34689;51.644;5.618;2022-07-06T12:54:45;22.20;65.00
48876;DHT22;34689;51.644;5.618;2022-07-06T12:57:18;22.30;65.00
48876;DHT22;34689;51.644;5.618;2022-07-06T13:02:31;22.60;64.30
48876;DHT22;34689;51.644;5.618;2022-07-06T13:04:59;22.50;64.10
48876;DHT22;34689;51.644;5.618;2022-07-06T13:07:26;22.50;64.70
48876;DHT22;34689;51.644;5.618;2022-07-06T13:09:52;22.50;64.10
48876;DHT22;34689;51.644;5.618;2022-07-06T13:12:19;22.60;64.10
48876;DHT22;34689;51.644;5.618;2022-07-06T13:14:44;22.70;63.90
48876;DHT22;34689;51.644;5.618;2022-07-06T13:17:10;22.80;64.20
48876;DHT22;34689;51.644;5.618;2022-07-06T13:19:36;23.00;63.90
48876;DHT22;34689;51.644;5.618;2022-07-06T13:22:01;23.10;64.00
48876;DHT22;34689;51.644;5.618;2022-07-06T13:24:27;23.10;62.80
48876;DHT22;34689;51.644;5.618;2022-07-06T13:26:54;23.00;62.90
48876;DHT22;34689;51.644;5.618;2022-07-06T13:29:20;23.10;62.90
48876;DHT22;34689;51.644;5.618;2022-07-06T13:31:46;23.20;62.00
48876;DHT22;34689;51.644;5.618;2022-07-06T13:34:11;23.30;62.30
48876;DHT22;34689;51.644;5.618;2022-07-06T13:36:39;23.30;62.20
48876;DHT22;34689;51.644;5.618;2022-07-06T13:39:05;23.30;61.70
48876;DHT22;34689;51.644;5.618;2022-07-06T13:41:32;23.20;61.80
48876;DHT22;34689;51.644;5.618;2022-07-06T13:44:00;23.20;62.00
48876;DHT22;34689;51.644;5.618;2022-07-06T13:46:27;23.40;61.90
48876;DHT22;34689;51.644;5.618;2022-07-06T13:48:53;23.50;61.80
48876;DHT22;34689;51.644;5.618;2022-07-06T13:51:19;23.70;61.60
48876;DHT22;34689;51.644;5.618;2022-07-06T13:53:46;23.60;61.30
48876;DHT22;34689;51.644;5.618;2022-07-06T13:56:14;23.60;61.00
48876;DHT22;34689;51.644;5.618;2022-07-06T13:58:39;23.50;61.20
48876;DHT22;34689;51.644;5.618;2022-07-06T14:01:05;23.60;61.20
48876;DHT22;34689;51.644;5.618;2022-07-06T14:03:31;23.70;61.00
48876;DHT22;34689;51.644;5.618;2022-07-06T14:05:58;23.70;60.90
48876;DHT22;34689;51.644;5.618;2022-07-06T14:08:25;23.60;61.00
48876;DHT22;34689;51.644;5.618;2022-07-06T14:10:53;23.60;61.00
48876;DHT22;34689;51.644;5.618;2022-07-06T14:13:20;23.40;61.10
48876;DHT22;34689;51.644;5.618;2022-07-06T14:15:46;23.40;61.30
48876;DHT22;34689;51.644;5.618;2022-07-06T14:18:12;23.30;61.50
48876;DHT22;34689;51.644;5.618;2022-07-06T14:20:40;23.20;61.70
48876;DHT22;34689;51.644;5.618;2022-07-06T14:23:06;23.20;61.70
48876;DHT22;34689;51.644;5.618;2022-07-06T14:25:33;23.30;61.60
48876;DHT22;34689;51.644;5.618;2022-07-06T14:27:59;23.30;61.50
48876;DHT22;34689;51.644;5.618;2022-07-06T14:30:25;23.30;61.70
48876;DHT22;34689;51.644;5.618;2022-07-06T14:32:53;23.40;61.60
48876;DHT22;34689;51.644;5.618;2022-07-06T14:35:19;23.30;61.20
48876;DHT22;34689;51.644;5.618;2022-07-06T14:37:48;23.30;61.30
48876;DHT22;34689;51.644;5.618;2022-07-06T14:40:13;23.30;61.40
48876;DHT22;34689;51.644;5.618;2022-07-06T14:42:39;23.30;61.50
48876;DHT22;34689;51.644;5.618;2022-07-06T14:45:05;23.40;61.50
48876;DHT22;34689;51.644;5.618;2022-07-06T14:47:31;23.40;61.70
48876;DHT22;34689;51.644;5.618;2022-07-06T14:49:59;23.50;61.60
48876;DHT22;34689;51.644;5.618;2022-07-06T14:52:24;23.60;61.30
48876;DHT22;34689;51.644;5.618;2022-07-06T14:54:50;23.50;61.40
48876;DHT22;34689;51.644;5.618;2022-07-06T14:57:19;23.50;61.70
48876;DHT22;34689;51.644;5.618;2022-07-06T14:59:45;23.40;61.60
48876;DHT22;34689;51.644;5.618;2022-07-06T15:02:11;23.40;61.60
48876;DHT22;34689;51.644;5.618;2022-07-06T15:04:37;23.20;61.70
48876;DHT22;34689;51.644;5.618;2022-07-06T15:07:02;23.20;61.70
48876;DHT22;34689;51.644;5.618;2022-07-06T15:09:28;23.10;62.10
48876;DHT22;34689;51.644;5.618;2022-07-06T15:11:56;23.00;62.00
48876;DHT22;34689;51.644;5.618;2022-07-06T15:14:22;22.90;62.20
48876;DHT22;34689;51.644;5.618;2022-07-06T15:16:48;22.90;62.50
48876;DHT22;34689;51.644;5.618;2022-07-06T15:19:16;22.90;62.40
48876;DHT22;34689;51.644;5.618;2022-07-06T15:21:42;22.80;62.50
48876;DHT22;34689;51.644;5.618;2022-07-06T15:24:08;22.70;62.50
48876;DHT22;34689;51.644;5.618;2022-07-06T15:26:33;22.70;62.80
48876;DHT22;34689;51.644;5.618;2022-07-06T15:29:02;22.70;62.70
48876;DHT22;34689;51.644;5.618;2022-07-06T15:31:27;22.70;62.60
48876;DHT22;34689;51.644;5.618;2022-07-06T15:33:53;22.60;62.70
48876;DHT22;34689;51.644;5.618;2022-07-06T15:36:19;22.60;62.60